createdAt,value
2023-02-14T00:00:27.516Z,17.04
2023-02-14T00:03:29.729Z,17.03
2023-02-14T00:06:35.286Z,17.01
2023-02-14T00:09:37.759Z,17.02
2023-02-14T00:12:39.926Z,16.98
2023-02-14T00:15:42.123Z,16.96
2023-02-14T00:19:02.813Z,16.95
2023-02-14T00:22:05.727Z,16.95
2023-02-14T00:25:08.539Z,16.93
2023-02-14T00:28:10.706Z,16.93
2023-02-14T00:31:13.054Z,16.91
2023-02-14T00:34:16.682Z,16.91
2023-02-14T00:37:18.848Z,16.88
2023-02-14T00:40:21.073Z,16.86
2023-02-14T00:43:23.156Z,16.86
2023-02-14T00:46:25.857Z,16.84
2023-02-14T00:49:28.100Z,16.84
2023-02-14T00:52:30.961Z,16.82
2023-02-14T00:55:33.187Z,16.80
2023-02-14T00:58:35.343Z,16.79
2023-02-14T01:01:37.823Z,16.78
2023-02-14T01:04:40.031Z,16.76
2023-02-14T01:07:42.294Z,16.75
2023-02-14T01:10:44.478Z,16.74
2023-02-14T01:13:48.521Z,16.72
2023-02-14T01:16:50.739Z,16.72
2023-02-14T01:19:53.852Z,16.70
2023-02-14T01:22:56.010Z,16.69
2023-02-14T01:25:58.166Z,16.67
2023-02-14T01:29:00.341Z,16.66
2023-02-14T01:32:02.712Z,16.64
2023-02-14T01:35:05.082Z,16.63
2023-02-14T01:38:07.230Z,16.62
2023-02-14T01:41:09.596Z,16.61
2023-02-14T01:44:14.946Z,16.60
2023-02-14T01:47:18.056Z,16.58
2023-02-14T01:50:34.853Z,16.56
2023-02-14T01:53:37.413Z,16.55
2023-02-14T01:56:44.268Z,16.54
2023-02-14T01:59:53.897Z,16.52
2023-02-14T02:02:58.729Z,16.50
2023-02-14T02:06:27.820Z,16.50
2023-02-14T02:09:37.730Z,16.48
2023-02-14T02:12:40.439Z,16.47
2023-02-14T02:16:08.186Z,16.46
2023-02-14T02:19:51.583Z,16.45
2023-02-14T02:22:59.330Z,16.44
2023-02-14T02:26:20.142Z,16.42
2023-02-14T02:29:58.362Z,16.41
2023-02-14T02:33:12.234Z,16.40
2023-02-14T02:36:19.553Z,16.37
2023-02-14T02:39:49.167Z,16.37
2023-02-14T02:43:15.895Z,16.34
2023-02-14T02:46:47.745Z,16.32
2023-02-14T02:50:43.607Z,16.33
2023-02-14T02:54:01.562Z,16.30
2023-02-14T02:57:07.644Z,16.31
2023-02-14T03:00:12.860Z,16.28
2023-02-14T03:03:34.524Z,16.27
2023-02-14T03:06:36.633Z,16.25
2023-02-14T03:09:41.687Z,16.25
2023-02-14T03:13:11.116Z,16.21
2023-02-14T03:16:19.076Z,16.22
2023-02-14T03:20:04.138Z,16.19
2023-02-14T03:23:14.951Z,16.18
2023-02-14T03:26:35.776Z,16.17
2023-02-14T03:29:50.176Z,16.16
2023-02-14T03:32:58.103Z,16.13
2023-02-14T03:36:12.541Z,16.13
2023-02-14T03:39:29.921Z,16.10
2023-02-14T03:42:42.664Z,16.11
2023-02-14T03:46:17.911Z,16.08
2023-02-14T03:49:24.078Z,16.07
2023-02-14T03:52:27.781Z,16.05
2023-02-14T03:56:03.402Z,16.05
2023-02-14T03:59:13.948Z,16.08
2023-02-14T04:02:23.528Z,16.12
2023-02-14T04:05:28.467Z,16.17
2023-02-14T04:08:30.628Z,16.18
2023-02-14T04:11:35.573Z,16.24
2023-02-14T04:14:37.977Z,16.28
2023-02-14T04:17:58.951Z,16.37
2023-02-14T04:21:01.521Z,16.45
2023-02-14T04:24:04.012Z,16.54
2023-02-14T04:27:12.566Z,16.62
2023-02-14T04:30:15.273Z,16.75
2023-02-14T04:33:17.457Z,16.84
2023-02-14T04:36:19.599Z,16.90
2023-02-14T04:39:21.722Z,16.91
2023-02-14T04:42:23.908Z,17.02
2023-02-14T04:45:26.108Z,17.11
2023-02-14T04:48:28.258Z,17.14
2023-02-14T04:51:30.443Z,17.16
2023-02-14T04:54:33.038Z,17.21
2023-02-14T04:57:35.376Z,17.33
2023-02-14T05:00:37.498Z,17.39
2023-02-14T05:03:39.674Z,17.37
2023-02-14T05:06:41.888Z,17.36
2023-02-14T05:09:44.038Z,17.40
2023-02-14T05:12:46.242Z,17.49
2023-02-14T05:15:48.362Z,17.53
2023-02-14T05:18:50.586Z,17.50
2023-02-14T05:21:52.756Z,17.48
2023-02-14T05:24:54.972Z,17.51
2023-02-14T05:27:58.276Z,17.60
2023-02-14T05:31:00.829Z,17.65
2023-02-14T05:34:03.313Z,17.64
2023-02-14T05:37:05.453Z,17.59
2023-02-14T05:40:08.342Z,17.63
2023-02-14T05:43:11.054Z,17.67
2023-02-14T05:46:13.375Z,17.73
2023-02-14T05:49:15.779Z,17.73
2023-02-14T05:52:17.940Z,17.68
2023-02-14T05:55:20.133Z,17.72
2023-02-14T05:58:22.333Z,17.80
2023-02-14T06:01:24.526Z,17.80
2023-02-14T06:04:26.762Z,17.78
2023-02-14T06:07:29.002Z,17.76
2023-02-14T06:10:31.115Z,17.75
2023-02-14T06:13:33.221Z,17.70
2023-02-14T06:16:35.503Z,17.69
2023-02-14T06:19:37.804Z,17.74
2023-02-14T06:22:39.877Z,17.81
2023-02-14T06:25:42.028Z,17.93
2023-02-14T06:28:44.107Z,17.94
2023-02-14T06:31:46.632Z,17.93
2023-02-14T06:34:48.826Z,17.89
2023-02-14T06:37:50.978Z,17.92
2023-02-14T06:40:53.037Z,17.95
2023-02-14T06:43:55.134Z,18.00
2023-02-14T06:46:57.197Z,18.00
2023-02-14T06:49:59.976Z,17.97
2023-02-14T06:53:02.144Z,17.96
2023-02-14T06:56:05.071Z,17.95
2023-02-14T06:59:07.166Z,18.00
2023-02-14T07:02:11.313Z,18.00
2023-02-14T07:05:15.217Z,18.04
2023-02-14T07:08:17.404Z,18.00
2023-02-14T07:11:20.141Z,17.97
2023-02-14T07:14:22.283Z,18.04
2023-02-14T07:17:24.429Z,18.08
2023-02-14T07:20:26.512Z,18.12
2023-02-14T07:23:28.599Z,18.08
2023-02-14T07:26:30.717Z,18.06
2023-02-14T07:29:32.805Z,18.08
2023-02-14T07:32:35.002Z,18.12
2023-02-14T07:35:37.215Z,18.20
2023-02-14T07:38:39.328Z,18.19
2023-02-14T07:41:41.442Z,18.14
2023-02-14T07:44:45.268Z,18.12
2023-02-14T07:47:52.741Z,18.14
2023-02-14T07:50:58.229Z,18.25
2023-02-14T07:54:00.500Z,18.28
2023-02-14T07:57:02.602Z,18.30
2023-02-14T08:00:06.521Z,18.24
2023-02-14T08:03:08.628Z,18.27
2023-02-14T08:06:11.005Z,18.33
2023-02-14T08:09:24.479Z,18.43
2023-02-14T08:12:45.501Z,18.42
2023-02-14T08:16:06.277Z,18.42
2023-02-14T08:19:08.848Z,18.50
2023-02-14T08:22:11.021Z,18.56
2023-02-14T08:25:13.092Z,18.66
2023-02-14T08:28:15.469Z,18.71
2023-02-14T08:31:35.751Z,18.70
2023-02-14T08:34:38.252Z,18.72
2023-02-14T08:37:40.435Z,18.74
2023-02-14T08:40:42.965Z,18.78
2023-02-14T08:43:45.628Z,18.80
2023-02-14T08:46:47.840Z,18.81
2023-02-14T08:49:50.289Z,18.78
2023-02-14T08:52:52.417Z,18.84
2023-02-14T08:55:54.457Z,18.88
2023-02-14T08:58:56.634Z,18.88
2023-02-14T09:01:58.815Z,18.86
2023-02-14T09:05:00.913Z,18.89
2023-02-14T09:08:04.148Z,18.93
2023-02-14T09:11:11.219Z,18.93
2023-02-14T09:14:13.433Z,18.89
2023-02-14T09:17:16.395Z,18.92
2023-02-14T09:20:18.675Z,18.94
2023-02-14T09:23:20.796Z,19.00
2023-02-14T09:26:23.263Z,19.02
2023-02-14T09:29:25.762Z,18.98
2023-02-14T09:32:29.375Z,18.95
2023-02-14T09:35:32.046Z,18.99
2023-02-14T09:38:34.217Z,19.08
2023-02-14T09:41:58.007Z,19.09
2023-02-14T09:45:12.758Z,19.06
2023-02-14T09:48:34.020Z,19.03
2023-02-14T09:51:37.570Z,19.07
2023-02-14T09:54:41.684Z,19.16
2023-02-14T09:57:59.677Z,19.17
2023-02-14T10:01:28.187Z,19.14
2023-02-14T10:04:44.005Z,19.13
2023-02-14T10:08:00.836Z,19.12
2023-02-14T10:11:07.431Z,19.18
2023-02-14T10:14:20.081Z,19.25
2023-02-14T10:17:38.525Z,19.22
2023-02-14T10:20:46.876Z,19.14
2023-02-14T10:24:15.915Z,19.15
2023-02-14T10:27:39.582Z,19.22
2023-02-14T10:30:52.006Z,19.24
2023-02-14T10:33:57.951Z,19.24
2023-02-14T10:37:19.913Z,19.26
2023-02-14T10:40:40.166Z,19.25
2023-02-14T10:44:22.186Z,19.22
2023-02-14T10:47:34.087Z,19.28
2023-02-14T10:50:51.467Z,19.27
2023-02-14T10:54:05.967Z,19.24
2023-02-14T10:57:28.555Z,19.23
2023-02-14T11:00:37.482Z,19.22
2023-02-14T11:03:52.356Z,19.24
2023-02-14T11:06:54.503Z,19.29
2023-02-14T11:09:57.439Z,19.29
2023-02-14T11:12:59.804Z,19.29
2023-02-14T11:16:10.909Z,19.27
2023-02-14T11:19:15.964Z,19.32
2023-02-14T11:22:29.947Z,19.37
2023-02-14T11:25:35.245Z,19.38
2023-02-14T11:28:55.488Z,19.38
2023-02-14T11:32:05.837Z,19.40
2023-02-14T11:35:30.356Z,19.38
2023-02-14T11:38:39.176Z,19.39
2023-02-14T11:42:11.805Z,19.41
2023-02-14T11:45:35.530Z,19.42
2023-02-14T11:48:39.141Z,19.41
2023-02-14T11:51:45.451Z,19.30
2023-02-14T11:54:49.485Z,19.29
2023-02-14T11:57:51.719Z,19.29
2023-02-14T12:00:54.745Z,19.36
2023-02-14T12:04:03.541Z,19.40
2023-02-14T12:07:18.153Z,19.37
2023-02-14T12:10:32.975Z,19.29
2023-02-14T12:13:35.187Z,19.26
2023-02-14T12:16:49.001Z,19.27
2023-02-14T12:20:10.894Z,19.24
2023-02-14T12:23:25.205Z,19.25
2023-02-14T12:26:38.653Z,19.25
2023-02-14T12:29:46.586Z,19.23
2023-02-14T12:32:51.413Z,19.21
2023-02-14T12:36:25.372Z,19.22
2023-02-14T12:39:36.590Z,19.26
2023-02-14T12:43:13.750Z,19.27
2023-02-14T12:50:03.435Z,19.17
2023-02-14T12:53:27.543Z,19.16
2023-02-14T12:57:02.654Z,19.12
2023-02-14T13:00:14.800Z,19.07
2023-02-14T13:03:19.905Z,19.05
2023-02-14T13:06:35.981Z,18.91
2023-02-14T13:10:04.577Z,18.81
2023-02-14T13:13:18.824Z,18.73
2023-02-14T13:16:52.185Z,18.66
2023-02-14T13:20:25.374Z,18.58
2023-02-14T13:23:34.737Z,18.50
2023-02-14T13:26:40.216Z,18.44
2023-02-14T13:29:50.390Z,18.44
2023-02-14T13:32:54.370Z,18.47
2023-02-14T13:36:01.345Z,18.47
2023-02-14T13:39:04.171Z,18.46
2023-02-14T13:42:06.832Z,18.46
2023-02-14T13:45:37.873Z,18.44
2023-02-14T13:48:40.828Z,18.43
2023-02-14T13:51:55.143Z,18.42
2023-02-14T13:55:03.132Z,18.40
2023-02-14T13:58:18.475Z,18.40
2023-02-14T14:01:36.935Z,18.38
2023-02-14T14:04:39.165Z,18.37
2023-02-14T14:07:41.254Z,18.35
2023-02-14T14:10:46.675Z,18.37
2023-02-14T14:14:36.122Z,18.37
2023-02-14T14:17:45.984Z,18.36
2023-02-14T14:20:48.519Z,18.37
2023-02-14T14:24:19.409Z,18.36
2023-02-14T14:27:34.229Z,18.39
2023-02-14T14:30:37.019Z,18.38
2023-02-14T14:33:39.184Z,18.36
2023-02-14T14:36:41.260Z,18.34
2023-02-14T14:39:49.577Z,18.36
2023-02-14T14:42:52.885Z,18.33
2023-02-14T14:45:56.582Z,18.33
2023-02-14T14:48:58.914Z,18.30
2023-02-14T14:52:01.038Z,18.30
2023-02-14T14:55:04.948Z,18.30
2023-02-14T14:58:28.554Z,18.30
2023-02-14T15:01:36.655Z,18.23
2023-02-14T15:04:38.717Z,18.23
2023-02-14T15:07:41.969Z,18.22
2023-02-14T15:10:47.778Z,18.21
2023-02-14T15:13:53.731Z,18.21
2023-02-14T15:17:03.243Z,18.23
2023-02-14T15:20:14.848Z,18.23
2023-02-14T15:23:22.822Z,18.24
2023-02-14T15:26:31.583Z,18.25
2023-02-14T15:29:33.962Z,18.24
2023-02-14T15:32:37.363Z,18.23
2023-02-14T15:35:43.972Z,18.22
2023-02-14T15:38:46.468Z,18.20
2023-02-14T15:41:48.576Z,18.20
2023-02-14T15:44:50.639Z,18.15
2023-02-14T15:47:55.685Z,18.18
2023-02-14T15:50:59.747Z,18.17
2023-02-14T15:54:08.461Z,18.17
2023-02-14T15:57:24.702Z,18.15
2023-02-14T16:00:27.097Z,18.14
2023-02-14T16:03:35.950Z,18.12
2023-02-14T16:06:40.450Z,18.12
2023-02-14T16:09:42.636Z,18.10
2023-02-14T16:12:58.902Z,18.09
2023-02-14T16:16:03.816Z,18.08
2023-02-14T16:19:25.846Z,18.06
2023-02-14T16:22:32.345Z,18.05
2023-02-14T16:25:34.374Z,18.06
2023-02-14T16:28:37.268Z,18.04
2023-02-14T16:32:15.685Z,18.03
2023-02-14T16:35:19.407Z,17.98
2023-02-14T16:38:22.383Z,17.96
2023-02-14T16:41:27.482Z,17.90
2023-02-14T16:44:29.543Z,17.02
2023-02-14T16:47:31.571Z,15.87
2023-02-14T16:50:34.582Z,16.26
2023-02-14T16:53:37.266Z,16.92
2023-02-14T16:56:51.706Z,17.33
2023-02-14T16:59:55.268Z,17.61
2023-02-14T17:03:04.444Z,17.78
2023-02-14T17:06:08.098Z,17.90
2023-02-14T17:09:13.807Z,17.92
2023-02-14T17:12:20.930Z,17.93
2023-02-14T17:15:24.912Z,17.95
2023-02-14T17:18:27.534Z,17.96
2023-02-14T17:21:29.840Z,17.95
2023-02-14T17:24:32.507Z,17.97
2023-02-14T17:27:35.162Z,17.95
2023-02-14T17:30:37.348Z,17.95
2023-02-14T17:33:39.473Z,17.95
2023-02-14T17:36:41.562Z,17.95
2023-02-14T17:39:43.687Z,17.93
2023-02-14T17:42:45.894Z,17.92
2023-02-14T17:45:47.964Z,17.93
2023-02-14T17:48:50.117Z,17.91
2023-02-14T17:51:52.236Z,17.90
2023-02-14T17:54:54.490Z,17.90
2023-02-14T17:57:56.554Z,17.88
2023-02-14T18:01:11.262Z,17.87
2023-02-14T18:04:13.437Z,17.83
2023-02-14T18:07:15.508Z,17.80
2023-02-14T18:10:17.742Z,17.80
2023-02-14T18:13:19.760Z,17.78
2023-02-14T18:16:22.195Z,17.74
2023-02-14T18:19:24.301Z,17.75
2023-02-14T18:22:28.385Z,17.74
2023-02-14T18:25:30.395Z,17.69
2023-02-14T18:28:33.632Z,17.66
2023-02-14T18:31:37.735Z,17.63
2023-02-14T18:34:40.064Z,17.65
2023-02-14T18:37:42.228Z,17.61
2023-02-14T18:40:44.263Z,17.59
2023-02-14T18:43:46.591Z,17.58
2023-02-14T18:46:48.617Z,17.55
2023-02-14T18:49:50.817Z,17.54
2023-02-14T18:52:53.087Z,17.53
2023-02-14T18:55:55.130Z,17.51
2023-02-14T18:59:03.389Z,17.51
2023-02-14T19:02:05.952Z,17.49
2023-02-14T19:05:09.360Z,17.49
2023-02-14T19:08:11.395Z,17.47
2023-02-14T19:11:24.511Z,17.45
2023-02-14T19:14:26.888Z,17.44
2023-02-14T19:17:29.067Z,17.43
2023-02-14T19:20:31.432Z,17.40
2023-02-14T19:23:33.516Z,17.41
2023-02-14T19:26:39.988Z,17.41
2023-02-14T19:29:42.247Z,17.40
2023-02-14T19:32:44.406Z,17.39
2023-02-14T19:35:46.527Z,17.39
2023-02-14T19:38:51.304Z,17.38
2023-02-14T19:41:53.960Z,17.38
2023-02-14T19:44:56.365Z,17.35
2023-02-14T19:47:59.229Z,17.34
2023-02-14T19:51:01.844Z,17.34
2023-02-14T19:54:07.219Z,17.34
2023-02-14T19:57:14.240Z,17.33
2023-02-14T20:00:17.213Z,17.33
2023-02-14T20:03:19.242Z,17.30
2023-02-14T20:06:23.047Z,17.28
2023-02-14T20:09:26.046Z,17.25
2023-02-14T20:12:28.199Z,17.23
2023-02-14T20:15:31.156Z,17.24
2023-02-14T20:18:34.984Z,17.22
2023-02-14T20:21:37.132Z,17.20
2023-02-14T20:24:39.165Z,17.20
2023-02-14T20:27:41.405Z,17.19
2023-02-14T20:30:43.821Z,17.18
2023-02-14T20:33:47.536Z,17.16
2023-02-14T20:36:53.175Z,17.16
2023-02-14T20:39:55.316Z,17.15
2023-02-14T20:42:57.375Z,17.16
2023-02-14T20:46:00.792Z,17.14
2023-02-14T20:49:03.610Z,17.11
2023-02-14T20:52:05.972Z,17.11
2023-02-14T20:55:08.655Z,17.10
2023-02-14T20:58:11.598Z,17.09
2023-02-14T21:01:16.631Z,17.09
2023-02-14T21:04:18.681Z,17.08
2023-02-14T21:07:21.839Z,17.08
2023-02-14T21:10:23.881Z,17.05
2023-02-14T21:13:26.073Z,17.05
2023-02-14T21:16:30.194Z,17.05
2023-02-14T21:19:34.984Z,17.04
2023-02-14T21:22:37.811Z,17.04
2023-02-14T21:25:40.075Z,17.02
2023-02-14T21:28:42.078Z,17.01
2023-02-14T21:31:44.242Z,17.02
2023-02-14T21:34:46.319Z,17.01
2023-02-14T21:37:48.406Z,17.02
2023-02-14T21:40:50.489Z,17.03
2023-02-14T21:43:53.927Z,17.00
2023-02-14T21:46:55.916Z,16.99
2023-02-14T21:50:16.522Z,16.99
2023-02-14T21:53:19.713Z,16.99
2023-02-14T21:56:22.562Z,17.00
2023-02-14T21:59:24.805Z,16.98
2023-02-14T22:02:26.965Z,16.95
2023-02-14T22:05:29.031Z,16.94
2023-02-14T22:08:31.683Z,16.95
2023-02-14T22:11:34.341Z,16.95
2023-02-14T22:14:36.346Z,16.92
2023-02-14T22:17:38.433Z,16.91
2023-02-14T22:20:40.698Z,16.90
2023-02-14T22:23:42.970Z,16.88
2023-02-14T22:26:45.026Z,16.87
2023-02-14T22:29:47.120Z,16.88
2023-02-14T22:32:49.181Z,16.87
2023-02-14T22:35:55.166Z,16.85
2023-02-14T22:38:57.178Z,16.82
2023-02-14T22:41:59.501Z,16.84
2023-02-14T22:45:01.557Z,16.82
2023-02-14T22:48:03.757Z,16.79
2023-02-14T22:51:12.402Z,16.78
2023-02-14T22:54:15.910Z,16.77
2023-02-14T22:57:20.308Z,16.75
2023-02-14T23:00:23.261Z,16.74
2023-02-14T23:03:25.278Z,16.74
2023-02-14T23:06:29.461Z,16.72
2023-02-14T23:09:31.526Z,16.71
2023-02-14T23:12:52.301Z,16.71
2023-02-14T23:16:13.195Z,16.67
2023-02-14T23:19:36.608Z,16.65
2023-02-14T23:22:40.970Z,16.66
2023-02-14T23:25:43.392Z,16.63
2023-02-14T23:28:45.465Z,16.63
2023-02-14T23:31:47.708Z,16.61
2023-02-14T23:34:49.792Z,16.60
2023-02-14T23:37:51.996Z,16.59
2023-02-14T23:41:12.616Z,16.58
2023-02-14T23:44:16.608Z,16.56
2023-02-14T23:47:18.675Z,16.55
2023-02-14T23:50:20.731Z,16.55
2023-02-14T23:53:22.760Z,16.51
2023-02-14T23:56:24.900Z,16.52
2023-02-14T23:59:27.203Z,16.50
